sensor_id;sensor_type;location;lat;lon;timestamp;pressure;altitude;pressure_sealevel;temperature;humidity
59767;BME280;46248;58.364;25.582;2023-06-04T00:01:35;100949.16;;;8.15;88.97
59767;BME280;46248;58.364;25.582;2023-06-04T00:04:57;100950.75;;;8.19;88.09
59767;BME280;46248;58.364;25.582;2023-06-04T00:08:22;100948.13;;;8.20;88.40
59767;BME280;46248;58.364;25.582;2023-06-04T00:11:45;100937.88;;;8.14;89.84
59767;BME280;46248;58.364;25.582;2023-06-04T00:15:08;100952.38;;;8.23;90.74
59767;BME280;46248;58.364;25.582;2023-06-04T00:18:31;100946.97;;;8.27;90.54
59767;BME280;46248;58.364;25.582;2023-06-04T00:21:54;100952.31;;;8.24;90.25
59767;BME280;46248;58.364;25.582;2023-06-04T00:25:18;100950.44;;;8.28;91.45
59767;BME280;46248;58.364;25.582;2023-06-04T00:28:41;100954.69;;;8.31;92.44
59767;BME280;46248;58.364;25.582;2023-06-04T00:32:04;100958.13;;;8.33;91.33
59767;BME280;46248;58.364;25.582;2023-06-04T00:35:28;100951.06;;;8.35;93.46
59767;BME280;46248;58.364;25.582;2023-06-04T00:38:51;100946.75;;;8.34;93.62
59767;BME280;46248;58.364;25.582;2023-06-04T00:42:15;100951.03;;;8.36;93.32
59767;BME280;46248;58.364;25.582;2023-06-04T00:45:37;100943.19;;;8.36;94.11
59767;BME280;46248;58.364;25.582;2023-06-04T00:49:00;100934.75;;;8.30;94.14
59767;BME280;46248;58.364;25.582;2023-06-04T00:52:23;100946.59;;;8.40;94.66
59767;BME280;46248;58.364;25.582;2023-06-04T00:55:46;100945.66;;;8.41;95.46
59767;BME280;46248;58.364;25.582;2023-06-04T00:59:11;100942.28;;;8.37;94.23
59767;BME280;46248;58.364;25.582;2023-06-04T01:02:35;100917.38;;;8.29;95.19
59767;BME280;46248;58.364;25.582;2023-06-04T01:06:07;100921.75;;;8.28;95.29
59767;BME280;46248;58.364;25.582;2023-06-04T01:09:35;100933.78;;;8.32;95.57
59767;BME280;46248;58.364;25.582;2023-06-04T01:12:58;100918.91;;;8.34;95.91
59767;BME280;46248;58.364;25.582;2023-06-04T01:16:23;100920.56;;;8.37;96.94
59767;BME280;46248;58.364;25.582;2023-06-04T01:20:13;100917.94;;;8.38;96.90
59767;BME280;46248;58.364;25.582;2023-06-04T01:23:46;100920.63;;;8.35;97.87
59767;BME280;46248;58.364;25.582;2023-06-04T01:27:10;100910.25;;;8.34;98.76
59767;BME280;46248;58.364;25.582;2023-06-04T01:30:38;100908.34;;;8.39;97.98
59767;BME280;46248;58.364;25.582;2023-06-04T01:34:07;100902.19;;;8.41;98.37
59767;BME280;46248;58.364;25.582;2023-06-04T01:37:30;100908.25;;;8.42;99.28
59767;BME280;46248;58.364;25.582;2023-06-04T01:40:53;100893.47;;;8.41;99.66
59767;BME280;46248;58.364;25.582;2023-06-04T01:44:18;100896.97;;;8.41;99.18
59767;BME280;46248;58.364;25.582;2023-06-04T01:47:41;100886.75;;;8.34;99.92
59767;BME280;46248;58.364;25.582;2023-06-04T01:51:05;100895.09;;;8.45;99.65
59767;BME280;46248;58.364;25.582;2023-06-04T01:54:28;100883.00;;;8.42;100.00
59767;BME280;46248;58.364;25.582;2023-06-04T01:57:54;100883.69;;;8.47;100.00
59767;BME280;46248;58.364;25.582;2023-06-04T02:01:17;100884.25;;;8.56;100.00
59767;BME280;46248;58.364;25.582;2023-06-04T02:04:41;100889.31;;;8.60;100.00
59767;BME280;46248;58.364;25.582;2023-06-04T02:08:05;100883.91;;;8.65;100.00
59767;BME280;46248;58.364;25.582;2023-06-04T02:11:30;100858.22;;;8.54;100.00
59767;BME280;46248;58.364;25.582;2023-06-04T02:14:52;100878.50;;;8.69;100.00
59767;BME280;46248;58.364;25.582;2023-06-04T02:18:18;100880.16;;;8.72;100.00
59767;BME280;46248;58.364;25.582;2023-06-04T02:21:42;100884.31;;;8.78;100.00
59767;BME280;46248;58.364;25.582;2023-06-04T02:25:07;100878.97;;;8.81;100.00
59767;BME280;46248;58.364;25.582;2023-06-04T02:28:31;100874.59;;;8.81;100.00
59767;BME280;46248;58.364;25.582;2023-06-04T02:31:53;100872.72;;;8.85;100.00
59767;BME280;46248;58.364;25.582;2023-06-04T02:35:16;100858.97;;;8.80;100.00
59767;BME280;46248;58.364;25.582;2023-06-04T02:38:39;100840.03;;;8.75;100.00
59767;BME280;46248;58.364;25.582;2023-06-04T02:42:04;100856.84;;;8.89;100.00
59767;BME280;46248;58.364;25.582;2023-06-04T02:45:27;100862.88;;;8.91;100.00
59767;BME280;46248;58.364;25.582;2023-06-04T02:48:51;100863.72;;;8.92;100.00
59767;BME280;46248;58.364;25.582;2023-06-04T02:52:14;100854.25;;;8.89;100.00
59767;BME280;46248;58.364;25.582;2023-06-04T02:55:37;100848.97;;;8.91;100.00
59767;BME280;46248;58.364;25.582;2023-06-04T02:59:01;100823.47;;;8.76;100.00
59767;BME280;46248;58.364;25.582;2023-06-04T03:02:24;100850.50;;;8.97;100.00
59767;BME280;46248;58.364;25.582;2023-06-04T03:05:48;100844.31;;;8.99;100.00
59767;BME280;46248;58.364;25.582;2023-06-04T03:09:11;100851.91;;;9.05;100.00
59767;BME280;46248;58.364;25.582;2023-06-04T03:12:35;100846.00;;;9.00;100.00
59767;BME280;46248;58.364;25.582;2023-06-04T03:16:00;100847.66;;;9.03;100.00
59767;BME280;46248;58.364;25.582;2023-06-04T03:19:24;100848.50;;;9.03;100.00
59767;BME280;46248;58.364;25.582;2023-06-04T03:22:46;100847.66;;;9.03;100.00
59767;BME280;46248;58.364;25.582;2023-06-04T03:26:09;100847.53;;;9.06;100.00
59767;BME280;46248;58.364;25.582;2023-06-04T03:29:34;100834.59;;;9.03;100.00
59767;BME280;46248;58.364;25.582;2023-06-04T03:32:58;100831.06;;;9.04;100.00
59767;BME280;46248;58.364;25.582;2023-06-04T03:36:21;100835.31;;;9.06;100.00
59767;BME280;46248;58.364;25.582;2023-06-04T03:39:52;100825.66;;;9.08;100.00
59767;BME280;46248;58.364;25.582;2023-06-04T03:43:15;100829.03;;;9.10;100.00
59767;BME280;46248;58.364;25.582;2023-06-04T03:46:38;100817.50;;;9.16;100.00
59767;BME280;46248;58.364;25.582;2023-06-04T03:50:03;100823.50;;;9.18;100.00
59767;BME280;46248;58.364;25.582;2023-06-04T03:53:26;100811.16;;;9.22;100.00
59767;BME280;46248;58.364;25.582;2023-06-04T03:56:48;100821.63;;;9.22;100.00
59767;BME280;46248;58.364;25.582;2023-06-04T04:00:12;100822.28;;;9.27;100.00
59767;BME280;46248;58.364;25.582;2023-06-04T04:03:36;100817.91;;;9.27;100.00
59767;BME280;46248;58.364;25.582;2023-06-04T04:07:00;100816.09;;;9.29;100.00
59767;BME280;46248;58.364;25.582;2023-06-04T04:10:24;100827.28;;;9.33;100.00
59767;BME280;46248;58.364;25.582;2023-06-04T04:13:47;100815.03;;;9.33;100.00
59767;BME280;46248;58.364;25.582;2023-06-04T04:17:11;100817.63;;;9.35;100.00
59767;BME280;46248;58.364;25.582;2023-06-04T04:20:33;100824.44;;;9.37;100.00
59767;BME280;46248;58.364;25.582;2023-06-04T04:23:58;100817.34;;;9.41;100.00
59767;BME280;46248;58.364;25.582;2023-06-04T04:27:21;100815.38;;;9.46;100.00
59767;BME280;46248;58.364;25.582;2023-06-04T04:30:43;100824.72;;;9.52;100.00
59767;BME280;46248;58.364;25.582;2023-06-04T04:34:07;100825.72;;;9.49;100.00
59767;BME280;46248;58.364;25.582;2023-06-04T04:37:30;100815.19;;;9.51;100.00
59767;BME280;46248;58.364;25.582;2023-06-04T04:40:55;100799.78;;;9.45;100.00
59767;BME280;46248;58.364;25.582;2023-06-04T04:44:19;100815.91;;;9.54;100.00
59767;BME280;46248;58.364;25.582;2023-06-04T04:47:42;100814.09;;;9.56;100.00
59767;BME280;46248;58.364;25.582;2023-06-04T04:51:05;100808.78;;;9.58;100.00
59767;BME280;46248;58.364;25.582;2023-06-04T04:54:28;100800.03;;;9.59;100.00
59767;BME280;46248;58.364;25.582;2023-06-04T04:57:53;100788.47;;;9.64;100.00
59767;BME280;46248;58.364;25.582;2023-06-04T05:01:16;100787.28;;;9.72;100.00
59767;BME280;46248;58.364;25.582;2023-06-04T05:04:38;100794.16;;;9.74;100.00
59767;BME280;46248;58.364;25.582;2023-06-04T05:08:01;100781.47;;;9.65;100.00
59767;BME280;46248;58.364;25.582;2023-06-04T05:11:24;100794.22;;;9.73;100.00
59767;BME280;46248;58.364;25.582;2023-06-04T05:14:48;100795.91;;;9.74;100.00
59767;BME280;46248;58.364;25.582;2023-06-04T05:18:11;100762.84;;;9.73;100.00
59767;BME280;46248;58.364;25.582;2023-06-04T05:21:34;100774.72;;;9.80;100.00
59767;BME280;46248;58.364;25.582;2023-06-04T05:24:58;100765.03;;;9.82;100.00
59767;BME280;46248;58.364;25.582;2023-06-04T05:28:21;100768.31;;;9.87;100.00
59767;BME280;46248;58.364;25.582;2023-06-04T05:31:48;100772.47;;;9.91;100.00
59767;BME280;46248;58.364;25.582;2023-06-04T05:35:11;100775.75;;;9.96;100.00
59767;BME280;46248;58.364;25.582;2023-06-04T05:38:33;100778.38;;;9.96;100.00
59767;BME280;46248;58.364;25.582;2023-06-04T05:41:56;100786.13;;;9.98;100.00
59767;BME280;46248;58.364;25.582;2023-06-04T05:45:19;100782.53;;;10.00;100.00
59767;BME280;46248;58.364;25.582;2023-06-04T05:48:43;100780.72;;;10.02;100.00
59767;BME280;46248;58.364;25.582;2023-06-04T05:52:06;100786.66;;;10.06;100.00
59767;BME280;46248;58.364;25.582;2023-06-04T05:55:29;100774.22;;;10.11;100.00
59767;BME280;46248;58.364;25.582;2023-06-04T05:58:52;100777.19;;;10.22;100.00
59767;BME280;46248;58.364;25.582;2023-06-04T06:02:15;100778.50;;;10.32;100.00
59767;BME280;46248;58.364;25.582;2023-06-04T06:05:40;100776.50;;;10.38;100.00
59767;BME280;46248;58.364;25.582;2023-06-04T06:09:03;100768.78;;;10.35;100.00
59767;BME280;46248;58.364;25.582;2023-06-04T06:12:26;100766.81;;;10.40;100.00
59767;BME280;46248;58.364;25.582;2023-06-04T06:15:49;100756.44;;;10.38;100.00
59767;BME280;46248;58.364;25.582;2023-06-04T06:19:14;100762.59;;;10.56;100.00
59767;BME280;46248;58.364;25.582;2023-06-04T06:22:39;100767.16;;;10.70;100.00
59767;BME280;46248;58.364;25.582;2023-06-04T06:26:02;100768.34;;;10.82;100.00
59767;BME280;46248;58.364;25.582;2023-06-04T06:29:29;100769.50;;;10.93;100.00
59767;BME280;46248;58.364;25.582;2023-06-04T06:32:52;100753.19;;;11.06;100.00
59767;BME280;46248;58.364;25.582;2023-06-04T06:36:16;100749.28;;;11.32;100.00
59767;BME280;46248;58.364;25.582;2023-06-04T06:39:41;100748.56;;;11.45;99.72
59767;BME280;46248;58.364;25.582;2023-06-04T06:43:04;100750.81;;;11.53;98.58
59767;BME280;46248;58.364;25.582;2023-06-04T06:46:27;100750.16;;;11.65;99.00
59767;BME280;46248;58.364;25.582;2023-06-04T06:49:50;100750.16;;;11.65;97.80
59767;BME280;46248;58.364;25.582;2023-06-04T06:53:13;100744.31;;;11.60;97.32
59767;BME280;46248;58.364;25.582;2023-06-04T06:56:37;100739.50;;;11.68;98.19
59767;BME280;46248;58.364;25.582;2023-06-04T07:00:00;100750.09;;;11.83;97.98
59767;BME280;46248;58.364;25.582;2023-06-04T07:03:23;100744.41;;;11.92;97.32
59767;BME280;46248;58.364;25.582;2023-06-04T07:06:46;100752.88;;;11.97;98.19
59767;BME280;46248;58.364;25.582;2023-06-04T07:10:09;100740.59;;;11.98;97.88
59767;BME280;46248;58.364;25.582;2023-06-04T07:13:34;100735.16;;;11.85;97.57
59767;BME280;46248;58.364;25.582;2023-06-04T07:16:56;100735.47;;;11.79;98.17
59767;BME280;46248;58.364;25.582;2023-06-04T07:20:19;100726.97;;;11.74;98.67
59767;BME280;46248;58.364;25.582;2023-06-04T07:23:42;100727.06;;;11.72;98.55
59767;BME280;46248;58.364;25.582;2023-06-04T07:27:10;100737.00;;;11.83;99.69
59767;BME280;46248;58.364;25.582;2023-06-04T07:30:35;100731.13;;;11.95;98.71
59767;BME280;46248;58.364;25.582;2023-06-04T07:33:58;100717.25;;;11.93;97.87
59767;BME280;46248;58.364;25.582;2023-06-04T07:37:21;100729.09;;;12.00;97.86
59767;BME280;46248;58.364;25.582;2023-06-04T07:40:45;100743.41;;;11.95;96.96
59767;BME280;46248;58.364;25.582;2023-06-04T07:44:08;100742.56;;;11.94;97.77
59767;BME280;46248;58.364;25.582;2023-06-04T07:47:33;100725.19;;;11.91;98.13
59767;BME280;46248;58.364;25.582;2023-06-04T07:50:56;100730.38;;;11.93;98.43
59767;BME280;46248;58.364;25.582;2023-06-04T07:54:20;100752.88;;;11.97;98.84
59767;BME280;46248;58.364;25.582;2023-06-04T07:57:43;100761.47;;;11.83;99.88
59767;BME280;46248;58.364;25.582;2023-06-04T08:01:07;100750.53;;;11.75;99.45
59767;BME280;46248;58.364;25.582;2023-06-04T08:04:31;100748.06;;;11.72;99.09
59767;BME280;46248;58.364;25.582;2023-06-04T08:07:54;100751.06;;;11.64;99.00
59767;BME280;46248;58.364;25.582;2023-06-04T08:11:17;100759.50;;;11.54;99.54
59767;BME280;46248;58.364;25.582;2023-06-04T08:14:40;100764.97;;;11.49;100.00
59767;BME280;46248;58.364;25.582;2023-06-04T08:18:04;100752.28;;;11.41;100.00
59767;BME280;46248;58.364;25.582;2023-06-04T08:21:29;100746.78;;;11.46;100.00
59767;BME280;46248;58.364;25.582;2023-06-04T08:24:53;100751.72;;;11.52;100.00
59767;BME280;46248;58.364;25.582;2023-06-04T08:28:17;100753.63;;;11.66;100.00
59767;BME280;46248;58.364;25.582;2023-06-04T08:31:42;100760.34;;;11.72;100.00
59767;BME280;46248;58.364;25.582;2023-06-04T08:35:06;100758.72;;;11.69;100.00
59767;BME280;46248;58.364;25.582;2023-06-04T08:38:31;100763.81;;;11.55;100.00
59767;BME280;46248;58.364;25.582;2023-06-04T08:41:59;100765.91;;;11.48;100.00
59767;BME280;46248;58.364;25.582;2023-06-04T08:45:23;100766.06;;;11.45;100.00
59767;BME280;46248;58.364;25.582;2023-06-04T08:48:46;100779.25;;;11.43;100.00
59767;BME280;46248;58.364;25.582;2023-06-04T08:52:11;100788.72;;;11.46;100.00
59767;BME280;46248;58.364;25.582;2023-06-04T08:55:35;100771.16;;;11.48;100.00
59767;BME280;46248;58.364;25.582;2023-06-04T08:59:01;100784.47;;;11.61;100.00
59767;BME280;46248;58.364;25.582;2023-06-04T09:02:27;100784.47;;;11.61;99.66
59767;BME280;46248;58.364;25.582;2023-06-04T09:05:51;100778.63;;;11.56;100.00
59767;BME280;46248;58.364;25.582;2023-06-04T09:09:15;100776.63;;;11.61;100.00
59767;BME280;46248;58.364;25.582;2023-06-04T09:12:42;100781.06;;;11.76;100.00
59767;BME280;46248;58.364;25.582;2023-06-04T09:16:06;100782.44;;;12.01;100.00
59767;BME280;46248;58.364;25.582;2023-06-04T09:19:29;100772.22;;;12.28;100.00
59767;BME280;46248;58.364;25.582;2023-06-04T09:22:52;100766.84;;;12.47;98.48
59767;BME280;46248;58.364;25.582;2023-06-04T09:26:14;100763.69;;;12.72;97.37
59767;BME280;46248;58.364;25.582;2023-06-04T09:29:39;100750.94;;;12.96;95.02
59767;BME280;46248;58.364;25.582;2023-06-04T09:33:06;100756.78;;;13.31;94.04
59767;BME280;46248;58.364;25.582;2023-06-04T09:36:30;100748.22;;;13.58;87.96
59767;BME280;46248;58.364;25.582;2023-06-04T09:39:54;100757.72;;;13.60;87.20
59767;BME280;46248;58.364;25.582;2023-06-04T09:43:23;100749.34;;;13.54;87.47
59767;BME280;46248;58.364;25.582;2023-06-04T09:46:54;100751.78;;;13.57;84.08
59767;BME280;46248;58.364;25.582;2023-06-04T09:50:25;100754.59;;;13.54;84.18
59767;BME280;46248;58.364;25.582;2023-06-04T09:53:56;100747.09;;;13.62;86.74
59767;BME280;46248;58.364;25.582;2023-06-04T09:57:20;100745.69;;;13.85;84.96
59767;BME280;46248;58.364;25.582;2023-06-04T10:00:45;100735.81;;;14.03;87.27
59767;BME280;46248;58.364;25.582;2023-06-04T10:04:09;100739.06;;;14.35;85.14
59767;BME280;46248;58.364;25.582;2023-06-04T10:07:37;100736.34;;;14.78;86.32
59767;BME280;46248;58.364;25.582;2023-06-04T10:11:02;100730.72;;;15.09;81.45
59767;BME280;46248;58.364;25.582;2023-06-04T10:14:31;100737.78;;;15.09;81.45
59767;BME280;46248;58.364;25.582;2023-06-04T10:17:57;100736.97;;;14.81;81.79
59767;BME280;46248;58.364;25.582;2023-06-04T10:21:23;100741.44;;;14.94;81.74
59767;BME280;46248;58.364;25.582;2023-06-04T10:24:45;100744.19;;;14.92;80.62
59767;BME280;46248;58.364;25.582;2023-06-04T10:28:08;100732.91;;;14.90;80.66
59767;BME280;46248;58.364;25.582;2023-06-04T10:31:31;100748.16;;;15.25;80.96
59767;BME280;46248;58.364;25.582;2023-06-04T10:34:55;100736.41;;;15.69;80.07
59767;BME280;46248;58.364;25.582;2023-06-04T10:38:20;100736.69;;;16.02;76.65
59767;BME280;46248;58.364;25.582;2023-06-04T10:41:43;100742.28;;;16.11;75.79
59767;BME280;46248;58.364;25.582;2023-06-04T10:45:09;100746.59;;;16.12;75.37
59767;BME280;46248;58.364;25.582;2023-06-04T10:48:32;100738.91;;;15.96;71.88
59767;BME280;46248;58.364;25.582;2023-06-04T10:51:56;100748.31;;;16.00;64.47
59767;BME280;46248;58.364;25.582;2023-06-04T10:55:25;100757.09;;;15.75;69.01
59767;BME280;46248;58.364;25.582;2023-06-04T10:58:48;100758.47;;;15.68;69.35
59767;BME280;46248;58.364;25.582;2023-06-04T11:02:11;100748.19;;;15.63;67.73
59767;BME280;46248;58.364;25.582;2023-06-04T11:05:35;100760.56;;;15.88;69.01
59767;BME280;46248;58.364;25.582;2023-06-04T11:09:02;100752.41;;;16.17;68.37
59767;BME280;46248;58.364;25.582;2023-06-04T11:12:27;100763.94;;;16.16;63.96
59767;BME280;46248;58.364;25.582;2023-06-04T11:15:49;100756.25;;;15.87;62.99
59767;BME280;46248;58.364;25.582;2023-06-04T11:19:12;100781.59;;;15.90;60.06
59767;BME280;46248;58.364;25.582;2023-06-04T11:22:35;100791.22;;;15.78;57.81
59767;BME280;46248;58.364;25.582;2023-06-04T11:25:57;100786.00;;;15.64;60.04
59767;BME280;46248;58.364;25.582;2023-06-04T11:29:22;100763.38;;;15.34;59.49
59767;BME280;46248;58.364;25.582;2023-06-04T11:32:46;100798.88;;;15.16;58.79
59767;BME280;46248;58.364;25.582;2023-06-04T11:36:08;100791.38;;;15.09;58.40
59767;BME280;46248;58.364;25.582;2023-06-04T11:39:35;100795.59;;;15.12;58.59
59767;BME280;46248;58.364;25.582;2023-06-04T11:42:59;100803.19;;;15.44;58.25
59767;BME280;46248;58.364;25.582;2023-06-04T11:46:24;100788.41;;;15.41;56.80
59767;BME280;46248;58.364;25.582;2023-06-04T11:49:47;100803.44;;;15.79;55.77
59767;BME280;46248;58.364;25.582;2023-06-04T11:53:10;100794.88;;;15.63;56.38
59767;BME280;46248;58.364;25.582;2023-06-04T11:56:33;100787.66;;;15.39;54.68
59767;BME280;46248;58.364;25.582;2023-06-04T11:59:56;100813.75;;;15.56;54.58
59767;BME280;46248;58.364;25.582;2023-06-04T12:03:33;100807.44;;;15.59;52.99
59767;BME280;46248;58.364;25.582;2023-06-04T12:06:57;100820.91;;;15.42;53.56
59767;BME280;46248;58.364;25.582;2023-06-04T12:10:21;100810.34;;;15.29;54.46
59767;BME280;46248;58.364;25.582;2023-06-04T12:13:45;100834.94;;;15.42;53.99
59767;BME280;46248;58.364;25.582;2023-06-04T12:17:08;100848.06;;;15.44;53.79
59767;BME280;46248;58.364;25.582;2023-06-04T12:20:38;100821.44;;;15.34;53.63
59767;BME280;46248;58.364;25.582;2023-06-04T12:24:08;100844.88;;;15.51;52.69
59767;BME280;46248;58.364;25.582;2023-06-04T12:27:32;100856.06;;;15.55;53.18
59767;BME280;46248;58.364;25.582;2023-06-04T12:30:55;100853.69;;;15.65;54.34
59767;BME280;46248;58.364;25.582;2023-06-04T12:34:18;100858.22;;;15.63;52.63
59767;BME280;46248;58.364;25.582;2023-06-04T12:37:43;100856.47;;;15.49;52.15
59767;BME280;46248;58.364;25.582;2023-06-04T12:41:06;100865.00;;;15.40;52.57
59767;BME280;46248;58.364;25.582;2023-06-04T12:44:29;100864.94;;;15.54;53.45
59767;BME280;46248;58.364;25.582;2023-06-04T12:47:55;100882.38;;;15.56;51.66
59767;BME280;46248;58.364;25.582;2023-06-04T12:51:18;100875.94;;;15.61;50.96
59767;BME280;46248;58.364;25.582;2023-06-04T12:54:43;100889.13;;;15.61;51.51
59767;BME280;46248;58.364;25.582;2023-06-04T12:58:06;100887.75;;;15.55;49.87
59767;BME280;46248;58.364;25.582;2023-06-04T13:01:29;100892.50;;;15.50;50.43
59767;BME280;46248;58.364;25.582;2023-06-04T13:04:52;100880.28;;;15.62;52.19
59767;BME280;46248;58.364;25.582;2023-06-04T13:08:17;100875.69;;;15.78;52.30
59767;BME280;46248;58.364;25.582;2023-06-04T13:11:43;100890.16;;;15.72;49.89
59767;BME280;46248;58.364;25.582;2023-06-04T13:15:06;100896.81;;;15.51;50.10
59767;BME280;46248;58.364;25.582;2023-06-04T13:18:30;100902.91;;;15.39;50.06
59767;BME280;46248;58.364;25.582;2023-06-04T13:21:52;100906.81;;;15.19;49.30
59767;BME280;46248;58.364;25.582;2023-06-04T13:25:15;100896.63;;;15.00;49.76
59767;BME280;46248;58.364;25.582;2023-06-04T13:28:40;100910.25;;;15.06;49.75
59767;BME280;46248;58.364;25.582;2023-06-04T13:32:04;100912.25;;;15.03;51.34
59767;BME280;46248;58.364;25.582;2023-06-04T13:35:27;100913.44;;;15.11;51.67
59767;BME280;46248;58.364;25.582;2023-06-04T13:38:50;100915.50;;;15.21;52.40
59767;BME280;46248;58.364;25.582;2023-06-04T13:42:15;100917.94;;;15.24;51.76
59767;BME280;46248;58.364;25.582;2023-06-04T13:45:40;100910.97;;;15.23;51.22
59767;BME280;46248;58.364;25.582;2023-06-04T13:49:05;100920.22;;;15.16;51.65
59767;BME280;46248;58.364;25.582;2023-06-04T13:52:28;100929.84;;;15.17;52.33
59767;BME280;46248;58.364;25.582;2023-06-04T13:55:50;100928.88;;;15.18;51.30
59767;BME280;46248;58.364;25.582;2023-06-04T13:59:19;100928.69;;;15.21;50.36
59767;BME280;46248;58.364;25.582;2023-06-04T14:02:43;100937.16;;;15.26;51.57
59767;BME280;46248;58.364;25.582;2023-06-04T14:06:06;100935.25;;;15.28;51.68
59767;BME280;46248;58.364;25.582;2023-06-04T14:09:33;100941.28;;;15.30;51.59
59767;BME280;46248;58.364;25.582;2023-06-04T14:12:57;100944.63;;;15.19;50.45
59767;BME280;46248;58.364;25.582;2023-06-04T14:16:19;100946.06;;;15.10;49.59
59767;BME280;46248;58.364;25.582;2023-06-04T14:19:44;100949.84;;;14.92;50.44
59767;BME280;46248;58.364;25.582;2023-06-04T14:23:07;100953.25;;;14.80;50.98
59767;BME280;46248;58.364;25.582;2023-06-04T14:26:30;100956.53;;;14.69;50.81
59767;BME280;46248;58.364;25.582;2023-06-04T14:29:53;100952.59;;;14.62;50.52
59767;BME280;46248;58.364;25.582;2023-06-04T14:33:15;100957.88;;;14.62;50.80
59767;BME280;46248;58.364;25.582;2023-06-04T14:36:40;100964.44;;;14.69;50.42
59767;BME280;46248;58.364;25.582;2023-06-04T14:40:03;100969.25;;;14.77;51.40
59767;BME280;46248;58.364;25.582;2023-06-04T14:43:27;100973.00;;;14.73;50.95
59767;BME280;46248;58.364;25.582;2023-06-04T14:46:50;100970.56;;;14.70;50.52
59767;BME280;46248;58.364;25.582;2023-06-04T14:50:14;100963.41;;;14.57;50.38
59767;BME280;46248;58.364;25.582;2023-06-04T14:53:38;100984.09;;;14.63;50.93
59767;BME280;46248;58.364;25.582;2023-06-04T14:57:01;100984.84;;;14.51;50.32
59767;BME280;46248;58.364;25.582;2023-06-04T15:00:24;100977.09;;;14.48;50.54
59767;BME280;46248;58.364;25.582;2023-06-04T15:03:47;100979.66;;;14.50;50.99
59767;BME280;46248;58.364;25.582;2023-06-04T15:07:10;100970.97;;;14.33;51.20
59767;BME280;46248;58.364;25.582;2023-06-04T15:10:34;100990.25;;;14.34;50.53
59767;BME280;46248;58.364;25.582;2023-06-04T15:13:57;100985.56;;;14.39;51.12
59767;BME280;46248;58.364;25.582;2023-06-04T15:17:20;100986.50;;;14.38;50.53
59767;BME280;46248;58.364;25.582;2023-06-04T15:20:43;100986.88;;;14.32;50.36
59767;BME280;46248;58.364;25.582;2023-06-04T15:24:06;100983.88;;;14.38;51.92
59767;BME280;46248;58.364;25.582;2023-06-04T15:27:32;100978.88;;;14.33;50.76
59767;BME280;46248;58.364;25.582;2023-06-04T15:30:55;100980.41;;;14.37;50.53
59767;BME280;46248;58.364;25.582;2023-06-04T15:34:18;100987.34;;;14.38;50.53
59767;BME280;46248;58.364;25.582;2023-06-04T15:37:41;100985.66;;;14.37;51.04
59767;BME280;46248;58.364;25.582;2023-06-04T15:41:03;100982.81;;;14.26;50.96
59767;BME280;46248;58.364;25.582;2023-06-04T15:44:28;100974.38;;;14.05;51.16
59767;BME280;46248;58.364;25.582;2023-06-04T15:47:51;100982.91;;;13.94;51.03
59767;BME280;46248;58.364;25.582;2023-06-04T15:51:15;100982.22;;;13.91;51.92
59767;BME280;46248;58.364;25.582;2023-06-04T15:54:37;100993.44;;;13.94;51.91
59767;BME280;46248;58.364;25.582;2023-06-04T15:58:06;100970.13;;;13.72;51.88
59767;BME280;46248;58.364;25.582;2023-06-04T16:01:31;101000.16;;;13.84;52.00
59767;BME280;46248;58.364;25.582;2023-06-04T16:04:54;100986.94;;;13.86;52.40
59767;BME280;46248;58.364;25.582;2023-06-04T16:08:17;101000.84;;;13.88;52.51
59767;BME280;46248;58.364;25.582;2023-06-04T16:11:41;100999.41;;;13.82;51.96
59767;BME280;46248;58.364;25.582;2023-06-04T16:15:05;100992.81;;;14.05;51.94
59767;BME280;46248;58.364;25.582;2023-06-04T16:18:29;100992.41;;;14.86;50.50
59767;BME280;46248;58.364;25.582;2023-06-04T16:21:53;100992.84;;;15.63;49.44
59767;BME280;46248;58.364;25.582;2023-06-04T16:25:16;100992.88;;;16.02;47.32
59767;BME280;46248;58.364;25.582;2023-06-04T16:28:40;100984.81;;;16.31;46.87
59767;BME280;46248;58.364;25.582;2023-06-04T16:32:04;100988.09;;;16.47;47.54
59767;BME280;46248;58.364;25.582;2023-06-04T16:35:29;100981.53;;;15.88;47.36
59767;BME280;46248;58.364;25.582;2023-06-04T16:38:53;100995.38;;;15.37;48.91
59767;BME280;46248;58.364;25.582;2023-06-04T16:42:15;100994.09;;;15.01;49.89
59767;BME280;46248;58.364;25.582;2023-06-04T16:45:39;101002.47;;;14.79;50.54
59767;BME280;46248;58.364;25.582;2023-06-04T16:49:02;101001.34;;;14.69;51.54
59767;BME280;46248;58.364;25.582;2023-06-04T16:52:26;101010.34;;;14.51;51.93
59767;BME280;46248;58.364;25.582;2023-06-04T16:55:49;101009.19;;;14.40;52.20
59767;BME280;46248;58.364;25.582;2023-06-04T16:59:12;101005.75;;;14.24;52.63
59767;BME280;46248;58.364;25.582;2023-06-04T17:02:35;101009.22;;;14.10;52.56
59767;BME280;46248;58.364;25.582;2023-06-04T17:05:58;101017.13;;;13.94;53.68
59767;BME280;46248;58.364;25.582;2023-06-04T17:09:22;101014.44;;;13.80;54.30
59767;BME280;46248;58.364;25.582;2023-06-04T17:12:45;101023.25;;;13.79;54.58
59767;BME280;46248;58.364;25.582;2023-06-04T17:16:08;101022.66;;;13.90;55.00
59767;BME280;46248;58.364;25.582;2023-06-04T17:19:31;101022.97;;;14.30;54.03
59767;BME280;46248;58.364;25.582;2023-06-04T17:22:54;101011.41;;;14.62;53.25
59767;BME280;46248;58.364;25.582;2023-06-04T17:26:19;101027.47;;;14.28;53.49
59767;BME280;46248;58.364;25.582;2023-06-04T17:29:43;101025.72;;;13.98;54.52
59767;BME280;46248;58.364;25.582;2023-06-04T17:33:06;101027.81;;;13.91;54.90